UDYZUKKK

Guest
Details From UDYZ - Zvartnots
To UKKK - Zhuliany Intl
Flight Number -
Tags Generated
Created
Modified
Stats Distance 851 nm / 1,575 km
Max Altitude 0 ft / 0 m
Waypoints 5
Social Downloads 1
Likes 0
Share VATSIM

Download

Looking for another format? Having issues loading an existing format? Contact us
Advertisement - Login to hide

Notes

Generated

Route

UDYZ GUBOR RASPU BB009 UKKK

ID Type Via Altitude Latitude Longitude Leg Dist Tot Dist Heading (true) Name
O UDYZ APT - 0 ft / 0 m 40.14715˚ 44.37329˚ - 0 nm - -
GUBOR FIX - 0 ft / 0 m 43.88167˚ 40.71167˚ 277 nm 277 nm 325° / 323° -
RASPU FIX - 0 ft / 0 m 47.24646˚ 35.78839˚ 289 nm 566 nm 316° / 313° -
BB009 FIX - 0 ft / 0 m 50.19833˚ 30.86950˚ 263 nm 829 nm 314° / 310° -
O UKKK APT - 0 ft / 0 m 50.40113˚ 30.43699˚ 20 nm 850 nm 306° / 306° -

Altitude Profile

Advertisement - Login to hide

Weather


0- 5 10 15 20 25 30 35+ Temperature / ° C

Clouds and Precipitation
Forecast for 2017-12-12 06:00 UTC. Updated 2 hours ago

Ground ~20,000 ft ~40,000 ft Winds

UDYZ

Details ICAO UDYZ (EVN)
Name ZVARTNOTS
Region Armenia
Timezone Asia/Yerevan (UTC+4.0)
Stats Elevation 2,838 ft / 865 m (AMSL)
Location 40.147271° 44.395880°
Runways 1
Magnetic Variation 6.200° E

METAR

UDYZ 120500Z 34002KT 2300 BR NSC M05/M06 Q1031 R09/000070 NOSIG

Decode

TAF

TAF UDYZ 112302Z 1200/1224 04006KT 2000 BR NSC TEMPO 1200/1206 0200 FZFC VV001

Decode

Departure Runways

ID Width Length Bearing (true) Bearing (mag) Surface Threshold Offset Overrun Length
09 184 ft / 56 m 12,601 ft / 3,841 m 89.59° 83.39° Asphalt 0 ft / 0 m 0 ft / 0 m
27 184 ft / 56 m 12,601 ft / 3,841 m 269.62° 263.42° Asphalt 0 ft / 0 m 0 ft / 0 m

UKKK

Details ICAO UKKK (IEV)
Name ZHULIANY INTL
Region Ukraine
Timezone Europe/Kiev (UTC+2.0)
Stats Elevation 586 ft / 179 m (AMSL)
Location 50.401694° 30.449697°
Runways 1
Magnetic Variation 7.596° E

METAR

UKKK 120500Z 18003MPS 120V220 CAVOK 02/M01 Q1008 R08/810250 NOSIG

Decode

TAF

TAF TAF UKKK 112310Z 1200/1224 17005G10MPS 4000 BR BKN010 TEMPO 1200/1208 1000 -SHSNRA BR BKN003 SCT010CB PROB40 TEMPO 1200/1204 -FZRA BKN001 BECMG 1208/1210 21006G12MPS 5000 BR BKN010 TX07/1212Z TNM00/1200Z

Decode

Destination Runways

ID Width Length Bearing (true) Bearing (mag) Surface Threshold Offset Overrun Length
08 161 ft / 49 m 5,926 ft / 1,806 m 86.02° 78.42° Concrete 0 ft / 0 m 0 ft / 0 m
26 161 ft / 49 m 5,926 ft / 1,806 m 266.04° 258.44° Concrete 0 ft / 0 m 1,132 ft / 345 m

Approach Navaids

Runway Type Ident Frequency Range Bearing (true) Bearing (mag) Slope Elevation
08 Localiser IKI 111.70 MHz 18 nm / 33 km 86.26° 78.66° - 586 ft / 179 m (AMSL)
08 Glidescope IKI 111.70 MHz 10 nm / 19 km 86.03° 78.43° 3.00° 586 ft / 179 m (AMSL)
26 Localiser IKV 108.30 MHz 18 nm / 33 km 266.67° 259.08° - 586 ft / 179 m (AMSL)
26 Glidescope IKV 108.30 MHz 10 nm / 19 km 266.03° 258.43° 3.00° 586 ft / 179 m (AMSL)

Popular Alternatives